Time;durP1;ratioP1;P1;durP2;ratioP2;P2;SDS_P1;SDS_P2;PMS_P1;PMS_P2;Temp;Humidity;BMP_temperature;BMP_pressure;BME280_temperature;BME280_humidity;BME280_pressure;Samples;Min_cycle;Max_cycle;Signal;HPM_P1;HPM_P2
2023/04/26 00:00:08;;;;;;;;;;;;;;;25.72;41.34;94154.00;4931244;28;9037;-63
2023/04/26 00:02:43;;;;;;;;;;;;;;;25.71;41.32;94158.00;4977979;28;7272;-63
2023/04/26 00:05:13;;;;;;;;;;;;;;;25.72;40.97;94158.75;4957527;28;7211;-63
2023/04/26 00:07:38;;;;;;;;;;;;;;;25.72;40.72;94167.78;4957128;28;7235;-63
2023/04/26 00:10:09;;;;;;;;;;;;;;;25.73;40.90;94165.78;4956959;28;9423;-63
2023/04/26 00:12:43;;;;;;;;;;;;;;;25.73;40.48;94165.78;4971118;28;8250;-63
2023/04/26 00:15:11;;;;;;;;;;;;;;;25.71;40.39;94163.50;4977445;28;7287;-63
2023/04/26 00:17:37;;;;;;;;;;;;;;;25.72;41.08;94173.28;4977639;28;7397;-63
2023/04/26 00:20:06;;;;;;;;;;;;;;;25.72;41.00;94167.03;4977010;28;8891;-63
2023/04/26 00:22:32;;;;;;;;;;;;;;;25.72;40.94;94165.03;4974747;28;7367;-63
2023/04/26 00:24:58;;;;;;;;;;;;;;;25.71;40.75;94163.50;4976141;28;7268;-63
2023/04/26 00:27:24;;;;;;;;;;;;;;;25.73;40.38;94163.00;4991937;28;9134;-63
2023/04/26 00:29:50;;;;;;;;;;;;;;;25.72;40.73;94164.25;5054032;28;9750;-63
2023/04/26 00:32:16;;;;;;;;;;;;;;;25.72;40.47;94169.78;5053822;28;9085;-63
2023/04/26 00:34:42;;;;;;;;;;;;;;;25.69;41.08;94168.03;5036143;28;7448;-63
2023/04/26 00:37:08;;;;;;;;;;;;;;;25.69;41.12;94166.03;5052595;28;9262;-63
2023/04/26 00:39:36;;;;;;;;;;;;;;;25.71;41.45;94171.78;5062349;28;8939;-63
2023/04/26 00:42:02;;;;;;;;;;;;;;;25.73;41.40;94171.28;5055363;28;7666;-63
2023/04/26 00:44:28;;;;;;;;;;;;;;;25.73;40.95;94172.00;5055072;28;8301;-63
2023/04/26 00:46:56;;;;;;;;;;;;;;;25.73;40.80;94176.78;5055178;28;7269;-63
2023/04/26 00:49:25;;;;;;;;;;;;;;;25.73;41.40;94174.75;5070436;28;9019;-63
2023/04/26 00:51:57;;;;;;;;;;;;;;;25.72;41.02;94161.50;5034894;28;7286;-63
2023/04/26 00:54:24;;;;;;;;;;;;;;;25.72;40.99;94162.25;5054770;28;7012;-63
2023/04/26 00:56:53;;;;;;;;;;;;;;;25.72;40.98;94162.25;5072620;28;7250;-63
2023/04/26 00:59:20;;;;;;;;;;;;;;;25.70;40.88;94164.78;5053723;28;9082;-63
2023/04/26 01:01:47;;;;;;;;;;;;;;;25.72;40.60;94176.03;5050971;28;7369;-63
2023/04/26 01:04:15;;;;;;;;;;;;;;;25.72;41.41;94165.03;5034995;28;7104;-63
2023/04/26 01:06:41;;;;;;;;;;;;;;;25.72;41.09;94165.03;5052678;28;7161;-63
2023/04/26 01:09:11;;;;;;;;;;;;;;;25.73;40.84;94168.53;5035484;28;7045;-63
2023/04/26 01:11:37;;;;;;;;;;;;;;;25.73;41.26;94169.25;5051175;28;7245;-63
2023/04/26 01:14:07;;;;;;;;;;;;;;;25.72;41.29;94159.50;5037220;28;8130;-63
2023/04/26 01:16:34;;;;;;;;;;;;;;;25.73;40.55;94158.22;5055806;28;9457;-63
2023/04/26 01:19:08;;;;;;;;;;;;;;;25.72;40.81;94153.25;5072972;28;7033;-63
2023/04/26 01:21:44;;;;;;;;;;;;;;;25.73;41.17;94152.72;5055006;28;7311;-63
2023/04/26 01:24:31;;;;;;;;;;;;;;;25.72;40.80;94154.00;5036128;28;8086;-63
2023/04/26 01:27:16;;;;;;;;;;;;;;;25.72;40.44;94156.00;5054933;28;9016;-63
2023/04/26 01:29:46;;;;;;;;;;;;;;;25.72;41.46;94156.75;5050605;28;7381;-63
2023/04/26 01:32:25;;;;;;;;;;;;;;;25.74;40.67;94156.22;5054448;28;9685;-63
2023/04/26 01:35:18;;;;;;;;;;;;;;;25.74;40.76;94147.97;5053257;28;7037;-63
2023/04/26 01:37:53;;;;;;;;;;;;;;;25.73;41.27;94149.97;5053198;28;7202;-63
2023/04/26 01:40:22;;;;;;;;;;;;;;;25.72;40.68;94142.97;5045624;28;7049;-63
2023/04/26 01:42:48;;;;;;;;;;;;;;;25.73;41.29;94143.72;5056746;28;7129;-63
2023/04/26 01:45:26;;;;;;;;;;;;;;;25.69;40.72;94146.75;5073212;28;7407;-63
2023/04/26 01:47:54;;;;;;;;;;;;;;;25.69;41.09;94149.50;5056617;28;7110;-63
2023/04/26 01:50:20;;;;;;;;;;;;;;;25.73;41.54;94152.00;5065759;28;7208;-63
2023/04/26 01:52:48;;;;;;;;;;;;;;;25.67;41.16;94146.53;5072240;28;7287;-63
2023/04/26 01:55:18;;;;;;;;;;;;;;;25.71;41.12;94144.22;5072980;28;9363;-63
2023/04/26 01:58:12;;;;;;;;;;;;;;;25.71;40.97;94152.50;5056449;28;9145;-63
2023/04/26 02:01:05;;;;;;;;;;;;;;;25.72;40.98;94154.00;4953061;28;9002;-63
2023/04/26 02:03:34;;;;;;;;;;;;;;;25.69;40.89;94135.75;4957132;28;9067;-63
2023/04/26 02:06:35;;;;;;;;;;;;;;;25.72;41.08;94142.22;4956789;28;9392;-63
2023/04/26 02:09:38;;;;;;;;;;;;;;;25.71;40.54;94135.97;4954837;28;7237;-63
2023/04/26 02:12:12;;;;;;;;;;;;;;;25.71;40.77;94140.75;4919696;29;8772;-64
2023/04/26 02:14:47;;;;;;;;;;;;;;;25.72;41.26;94136.72;4925855;29;7452;-63
2023/04/26 02:17:13;;;;;;;;;;;;;;;25.71;40.60;94138.00;4932169;29;7027;-63
2023/04/26 02:19:56;;;;;;;;;;;;;;;25.72;40.32;94137.47;4919327;29;7529;-63
2023/04/26 02:22:25;;;;;;;;;;;;;;;25.72;40.39;94131.97;4919439;29;8930;-63
2023/04/26 02:24:51;;;;;;;;;;;;;;;25.71;40.55;94130.47;4919247;29;7264;-63
2023/04/26 02:27:32;;;;;;;;;;;;;;;25.67;41.35;94127.25;4928451;29;7287;-63
2023/04/26 02:29:58;;;;;;;;;;;;;;;25.69;40.87;94137.75;4938471;29;8795;-63
2023/04/26 02:32:40;;;;;;;;;;;;;;;25.72;40.60;94128.44;4943493;28;7216;-63
2023/04/26 02:35:20;;;;;;;;;;;;;;;25.70;40.90;94125.47;4938287;29;7094;-63
2023/04/26 02:37:54;;;;;;;;;;;;;;;25.69;41.47;94121.97;4974017;28;9085;-63
2023/04/26 02:41:00;;;;;;;;;;;;;;;25.71;40.80;94118.72;4996410;28;9066;-63
2023/04/26 02:43:26;;;;;;;;;;;;;;;25.72;41.01;94123.69;4960124;28;7365;-63
2023/04/26 02:46:43;;;;;;;;;;;;;;;25.72;40.38;94131.22;4960371;28;7331;-63
2023/04/26 02:49:10;;;;;;;;;;;;;;;25.71;40.79;94127.69;4960167;28;9319;-63
2023/04/26 02:51:46;;;;;;;;;;;;;;;25.70;41.22;94126.22;4976418;28;9038;-63
2023/04/26 02:54:13;;;;;;;;;;;;;;;25.68;40.49;94123.25;4960387;28;8173;-63
2023/04/26 02:57:07;;;;;;;;;;;;;;;25.70;40.69;94125.47;4972605;28;9000;-63
2023/04/26 02:59:43;;;;;;;;;;;;;;;25.71;40.89;94118.72;4940986;28;8825;-63
2023/04/26 03:02:21;;;;;;;;;;;;;;;25.69;41.08;94121.22;4956912;28;7018;-63
2023/04/26 03:04:56;;;;;;;;;;;;;;;25.70;40.95;94119.97;4940885;28;9201;-63
2023/04/26 03:07:22;;;;;;;;;;;;;;;25.68;41.15;94114.97;4956650;28;7830;-63
2023/04/26 03:10:08;;;;;;;;;;;;;;;25.68;41.49;94119.75;4959892;28;7035;-63
2023/04/26 03:12:45;;;;;;;;;;;;;;;25.70;41.09;94120.72;4959956;28;7043;-63
2023/04/26 03:15:27;;;;;;;;;;;;;;;25.71;41.28;94113.94;4959661;28;10015;-63
2023/04/26 03:17:54;;;;;;;;;;;;;;;25.70;40.41;94120.72;4971131;28;8993;-63
2023/04/26 03:20:32;;;;;;;;;;;;;;;25.69;40.49;94115.72;5054423;28;7058;-63
2023/04/26 03:23:17;;;;;;;;;;;;;;;25.66;40.38;94114.75;5039024;28;7030;-63
2023/04/26 03:25:43;;;;;;;;;;;;;;;25.66;41.43;94119.50;5055268;28;9423;-63
2023/04/26 03:28:14;;;;;;;;;;;;;;;25.68;41.45;94120.50;5043064;28;7019;-63
2023/04/26 03:30:41;;;;;;;;;;;;;;;25.68;40.48;94120.50;5039129;28;7593;-63
2023/04/26 03:33:09;;;;;;;;;;;;;;;25.69;40.56;94127.47;5038723;28;9083;-64
2023/04/26 03:35:51;;;;;;;;;;;;;;;25.69;41.30;94124.72;5038960;28;7319;-63
2023/04/26 03:38:22;;;;;;;;;;;;;;;25.68;40.85;94134.25;5046946;28;6995;-63
2023/04/26 03:41:21;;;;;;;;;;;;;;;25.68;41.01;94131.50;5038861;28;7514;-62
2023/04/26 03:43:48;;;;;;;;;;;;;;;25.66;40.55;94131.28;5038340;28;7115;-63
2023/04/26 03:46:32;;;;;;;;;;;;;;;25.65;41.06;94121.50;5038884;28;8834;-63
2023/04/26 03:48:59;;;;;;;;;;;;;;;25.66;40.82;94120.25;5056792;28;9498;-63
2023/04/26 03:51:39;;;;;;;;;;;;;;;25.62;41.62;94116.31;5055086;28;7272;-63
2023/04/26 03:54:35;;;;;;;;;;;;;;;25.65;41.48;94118.75;5054972;28;7043;-63
2023/04/26 03:57:12;;;;;;;;;;;;;;;25.66;41.36;94116.75;5019533;28;9176;-63
2023/04/26 03:59:47;;;;;;;;;;;;;;;25.63;40.83;94115.78;5033975;28;7184;-63
2023/04/26 04:02:13;;;;;;;;;;;;;;;25.62;40.83;94106.00;5033661;28;7234;-63
2023/04/26 04:04:43;;;;;;;;;;;;;;;25.62;40.67;94111.53;5034217;28;8665;-63
2023/04/26 04:07:09;;;;;;;;;;;;;;;25.61;41.07;94103.78;5016801;28;7302;-63
2023/04/26 04:09:46;;;;;;;;;;;;;;;25.64;41.54;94109.03;5034168;28;9045;-63
2023/04/26 04:12:50;;;;;;;;;;;;;;;25.63;40.56;94110.28;5033942;28;8686;-63
2023/04/26 04:15:20;;;;;;;;;;;;;;;25.65;41.35;94110.50;5017354;28;7401;-63
2023/04/26 04:18:19;;;;;;;;;;;;;;;25.67;41.44;94107.22;5018564;28;9329;-63
2023/04/26 04:20:46;;;;;;;;;;;;;;;25.65;40.67;94107.75;5002818;28;8850;-63
2023/04/26 04:23:24;;;;;;;;;;;;;;;25.65;40.55;94110.50;5013723;28;7281;-63
2023/04/26 04:26:07;;;;;;;;;;;;;;;25.66;41.14;94106.50;5013984;28;9082;-63
2023/04/26 04:28:33;;;;;;;;;;;;;;;25.60;40.58;94100.28;5001188;28;6997;-63
2023/04/26 04:31:26;;;;;;;;;;;;;;;25.64;41.45;94098.00;4997231;28;9039;-63
2023/04/26 04:34:04;;;;;;;;;;;;;;;25.64;40.57;94106.25;5024813;28;7257;-63
2023/04/26 04:36:39;;;;;;;;;;;;;;;25.64;40.89;94105.53;5037788;28;7266;-63
2023/04/26 04:39:31;;;;;;;;;;;;;;;25.64;41.55;94106.25;5045594;28;8456;-63
2023/04/26 04:42:09;;;;;;;;;;;;;;;25.66;40.96;94100.97;5037285;28;7178;-63
2023/04/26 04:44:35;;;;;;;;;;;;;;;25.64;41.25;94097.25;5053915;28;7046;-63
2023/04/26 04:47:03;;;;;;;;;;;;;;;25.63;40.69;94102.00;5037641;28;7041;-63
2023/04/26 04:49:31;;;;;;;;;;;;;;;25.63;41.13;94104.00;5037574;28;8746;-63
2023/04/26 04:52:15;;;;;;;;;;;;;;;25.61;40.82;94103.78;5037700;28;9523;-63
2023/04/26 04:55:00;;;;;;;;;;;;;;;25.62;41.34;94103.25;5054791;28;6851;-63
2023/04/26 04:57:47;;;;;;;;;;;;;;;25.60;41.51;94108.53;5041125;28;7348;-64
2023/04/26 05:00:22;;;;;;;;;;;;;;;25.59;41.10;94104.31;5054856;28;9075;-63
2023/04/26 05:03:14;;;;;;;;;;;;;;;25.61;40.67;94115.56;5037317;28;7175;-63
2023/04/26 05:05:47;;;;;;;;;;;;;;;25.60;40.74;94107.81;5053649;28;9527;-63
2023/04/26 05:08:47;;;;;;;;;;;;;;;25.62;40.67;94116.31;5053930;28;7514;-63
2023/04/26 05:11:26;;;;;;;;;;;;;;;25.62;40.98;94117.03;4954352;28;8227;-63
2023/04/26 05:14:02;;;;;;;;;;;;;;;25.62;40.83;94111.53;4937134;28;7230;-63
2023/04/26 05:16:28;;;;;;;;;;;;;;;25.61;41.26;94120.31;4940523;28;7291;-63
2023/04/26 05:18:54;;;;;;;;;;;;;;;25.62;40.65;94122.53;4936216;28;7020;-63
2023/04/26 05:21:31;;;;;;;;;;;;;;;25.56;40.67;94121.84;4952928;28;7261;-64
2023/04/26 05:24:12;;;;;;;;;;;;;;;25.59;40.56;94128.34;4954616;28;7151;-63
2023/04/26 05:26:54;;;;;;;;;;;;;;;25.59;40.91;94129.09;4950893;28;9476;-63
2023/04/26 05:29:36;;;;;;;;;;;;;;;25.56;41.46;94135.63;4973842;28;7238;-63
2023/04/26 05:32:06;;;;;;;;;;;;;;;25.54;41.39;94142.91;4970312;28;7031;-63
2023/04/26 05:34:36;;;;;;;;;;;;;;;25.54;41.27;94135.41;4936744;28;7248;-63
2023/04/26 05:37:02;;;;;;;;;;;;;;;25.56;40.83;94135.63;4952350;28;8785;-63
2023/04/26 05:39:28;;;;;;;;;;;;;;;25.58;40.95;94138.59;4969077;28;7469;-63
2023/04/26 05:41:57;;;;;;;;;;;;;;;25.59;41.57;94133.84;4990636;28;7241;-63
2023/04/26 05:44:23;;;;;;;;;;;;;;;25.59;40.71;94131.84;4991219;28;8285;-63
2023/04/26 05:47:00;;;;;;;;;;;;;;;25.52;40.83;94134.41;5027014;28;7314;-63
2023/04/26 05:49:34;;;;;;;;;;;;;;;25.51;40.96;94130.19;5073490;28;9391;-63
2023/04/26 05:52:10;;;;;;;;;;;;;;;25.55;41.77;94145.16;5074476;28;9339;-63
2023/04/26 05:54:37;;;;;;;;;;;;;;;25.59;41.08;94142.88;5072939;28;7354;-63
2023/04/26 05:57:23;;;;;;;;;;;;;;;25.56;41.75;94140.38;5056101;28;7076;-63
2023/04/26 06:00:01;;;;;;;;;;;;;;;25.56;40.77;94145.88;5056242;28;7018;-63
2023/04/26 06:02:38;;;;;;;;;;;;;;;25.50;41.33;94140.44;5072544;28;7245;-63
2023/04/26 06:05:38;;;;;;;;;;;;;;;25.50;40.90;94147.97;5056551;28;8726;-63
2023/04/26 06:08:36;;;;;;;;;;;;;;;25.48;41.02;94145.72;4976024;28;9078;-64
2023/04/26 06:11:03;;;;;;;;;;;;;;;25.49;41.33;94147.22;4976547;28;6925;-63
2023/04/26 06:13:36;;;;;;;;;;;;;;;25.46;41.08;94153.75;4980762;28;7041;-63
2023/04/26 06:16:20;;;;;;;;;;;;;;;25.50;41.83;94150.72;4990728;28;7064;-63
2023/04/26 06:19:15;;;;;;;;;;;;;;;25.51;41.38;94152.97;4956709;28;7048;-63
2023/04/26 06:21:54;;;;;;;;;;;;;;;25.52;40.74;94157.19;4956838;28;7215;-63
2023/04/26 06:24:20;;;;;;;;;;;;;;;25.55;41.22;94161.69;4960775;28;9155;-63
2023/04/26 06:26:54;;;;;;;;;;;;;;;25.53;41.35;94164.22;4973526;28;9051;-63
2023/04/26 06:29:31;;;;;;;;;;;;;;;25.49;41.78;94160.97;4973069;28;9392;-63
2023/04/26 06:31:58;;;;;;;;;;;;;;;25.50;41.38;94167.25;4988102;28;7062;-63
2023/04/26 06:34:36;;;;;;;;;;;;;;;25.52;40.96;94162.72;4992567;28;7120;-63
2023/04/26 06:37:21;;;;;;;;;;;;;;;25.54;41.08;94165.69;4992454;28;7250;-63
2023/04/26 06:40:01;;;;;;;;;;;;;;;25.49;40.98;94160.97;4992372;28;8674;-63
2023/04/26 06:42:26;;;;;;;;;;;;;;;25.51;41.53;94161.22;4991807;28;8955;-63
2023/04/26 06:44:52;;;;;;;;;;;;;;;25.55;41.04;94160.94;5032925;28;7243;-63
2023/04/26 06:47:30;;;;;;;;;;;;;;;25.58;41.16;94160.66;5053381;28;8598;-64
2023/04/26 06:50:24;;;;;;;;;;;;;;;25.58;40.89;94165.44;5019661;28;7110;-63
2023/04/26 06:52:58;;;;;;;;;;;;;;;25.58;41.17;94162.66;5072286;28;9376;-64
2023/04/26 06:55:29;;;;;;;;;;;;;;;25.59;41.15;94162.16;5056165;28;7266;-63
2023/04/26 06:58:13;;;;;;;;;;;;;;;25.60;40.69;94151.88;5060012;28;8767;-64
2023/04/26 07:00:51;;;;;;;;;;;;;;;25.62;41.09;94155.59;5071685;28;7064;-64
2023/04/26 07:03:24;;;;;;;;;;;;;;;25.58;41.03;94152.38;5076287;28;7308;-63
2023/04/26 07:06:26;;;;;;;;;;;;;;;25.63;41.00;94159.09;5075846;28;7416;-63
2023/04/26 07:09:01;;;;;;;;;;;;;;;25.60;41.24;94151.88;4960339;28;9075;-64
2023/04/26 07:12:12;;;;;;;;;;;;;;;25.64;40.63;94164.09;4969409;28;7046;-64
2023/04/26 07:14:40;;;;;;;;;;;;;;;25.65;41.47;94153.81;4912807;29;7124;-63
2023/04/26 07:17:07;;;;;;;;;;;;;;;25.66;40.75;94153.31;4913003;29;7074;-63
2023/04/26 07:19:35;;;;;;;;;;;;;;;25.68;40.32;94150.03;4916968;29;7465;-63
2023/04/26 07:22:02;;;;;;;;;;;;;;;25.68;40.42;94153.53;4899284;29;7215;-64
2023/04/26 07:24:30;;;;;;;;;;;;;;;25.66;41.06;94150.56;4901451;29;8634;-63
2023/04/26 07:27:00;;;;;;;;;;;;;;;25.69;40.82;94157.03;4901378;29;9011;-63
2023/04/26 07:29:40;;;;;;;;;;;;;;;25.68;41.15;94141.78;4902603;29;9040;-63
2023/04/26 07:32:49;;;;;;;;;;;;;;;25.72;40.94;94147.75;4892050;29;7026;-63
2023/04/26 07:35:27;;;;;;;;;;;;;;;25.72;40.75;94147.75;4899179;29;7509;-63
2023/04/26 07:38:18;;;;;;;;;;;;;;;25.71;41.04;94149.00;4900733;29;7213;-63
2023/04/26 07:41:03;;;;;;;;;;;;;;;25.73;40.96;94149.97;4902103;29;7378;-63
2023/04/26 07:43:30;;;;;;;;;;;;;;;25.73;41.00;94140.97;4978178;28;7379;-63
2023/04/26 07:46:02;;;;;;;;;;;;;;;25.74;40.30;94143.22;4998028;28;7290;-63
2023/04/26 07:48:30;;;;;;;;;;;;;;;25.73;40.88;94144.47;4998332;28;7015;-62
2023/04/26 07:51:21;;;;;;;;;;;;;;;25.73;40.82;94138.94;5015015;28;8069;-63
2023/04/26 07:53:50;;;;;;;;;;;;;;;25.74;40.13;94140.44;5058171;28;7120;-63
2023/04/26 07:56:23;;;;;;;;;;;;;;;25.74;40.77;94148.72;5041545;28;9156;-63
2023/04/26 07:58:58;;;;;;;;;;;;;;;25.73;40.94;94136.19;5038036;28;7350;-63
2023/04/26 08:01:38;;;;;;;;;;;;;;;25.75;40.39;94133.66;5038768;28;7037;-63
2023/04/26 08:04:32;;;;;;;;;;;;;;;25.77;40.85;94142.19;5056073;28;9043;-63
2023/04/26 08:07:06;;;;;;;;;;;;;;;25.78;40.12;94146.41;5037882;28;6987;-63
2023/04/26 08:09:50;;;;;;;;;;;;;;;25.79;40.32;94136.91;5055350;28;9327;-63
2023/04/26 08:12:26;;;;;;;;;;;;;;;25.81;41.06;94130.84;5052716;28;7353;-63
2023/04/26 08:15:05;;;;;;;;;;;;;;;25.78;40.86;94121.63;5058453;28;9011;-63
2023/04/26 08:17:40;;;;;;;;;;;;;;;25.80;41.02;94126.59;5057960;28;9104;-63
2023/04/26 08:20:08;;;;;;;;;;;;;;;25.81;40.82;94131.63;5053074;28;7143;-63
2023/04/26 08:22:36;;;;;;;;;;;;;;;25.82;41.20;94132.34;5055815;28;8794;-63
2023/04/26 08:25:04;;;;;;;;;;;;;;;25.82;40.33;94130.34;5037818;28;9202;-63
2023/04/26 08:27:30;;;;;;;;;;;;;;;25.80;40.53;94124.59;5037793;28;7038;-63
2023/04/26 08:30:09;;;;;;;;;;;;;;;25.81;41.05;94123.34;5058599;28;9097;-63
2023/04/26 08:32:40;;;;;;;;;;;;;;;25.82;41.00;94130.34;5054243;28;9086;-63
2023/04/26 08:35:21;;;;;;;;;;;;;;;25.82;40.71;94119.31;5054340;28;7889;-63
2023/04/26 08:38:00;;;;;;;;;;;;;;;25.84;40.65;94132.56;5054587;28;8943;-63
2023/04/26 08:40:45;;;;;;;;;;;;;;;25.86;40.74;94130.06;5053370;28;7374;-63
2023/04/26 08:43:29;;;;;;;;;;;;;;;25.83;40.26;94131.09;5054076;28;8955;-63
2023/04/26 08:46:00;;;;;;;;;;;;;;;25.85;40.67;94129.31;5037416;28;9357;-63
2023/04/26 08:48:33;;;;;;;;;;;;;;;25.85;40.77;94134.81;5037428;28;9359;-63
2023/04/26 08:51:12;;;;;;;;;;;;;;;25.88;40.88;94127.53;5048360;28;9490;-63
2023/04/26 08:53:40;;;;;;;;;;;;;;;25.87;40.08;94131.53;5057444;28;7039;-63
2023/04/26 08:56:30;;;;;;;;;;;;;;;25.88;40.09;94139.28;5057153;28;7009;-63
2023/04/26 08:59:32;;;;;;;;;;;;;;;25.90;40.40;94136.75;5057202;28;7112;-63
2023/04/26 09:02:04;;;;;;;;;;;;;;;25.89;40.57;94135.28;5012721;28;9142;-63
2023/04/26 09:05:17;;;;;;;;;;;;;;;25.91;40.05;94135.50;5012911;28;7077;-63
2023/04/26 09:07:45;;;;;;;;;;;;;;;25.91;40.16;94135.50;4996677;28;8751;-63
2023/04/26 09:10:20;;;;;;;;;;;;;;;25.91;40.39;94138.25;5011413;28;7950;-64
2023/04/26 09:12:57;;;;;;;;;;;;;;;25.91;40.07;94141.00;5012773;28;7327;-63
2023/04/26 09:15:25;;;;;;;;;;;;;;;25.93;40.76;94135.72;5012776;28;7137;-63
2023/04/26 09:18:45;;;;;;;;;;;;;;;25.93;41.12;94140.47;5012455;28;7298;-63
2023/04/26 09:21:28;;;;;;;;;;;;;;;25.94;40.40;94141.97;4919369;29;9766;-63
2023/04/26 09:24:23;;;;;;;;;;;;;;;25.97;40.75;94149.94;4919161;29;7122;-63
2023/04/26 09:27:14;;;;;;;;;;;;;;;25.98;40.03;94148.69;4919544;29;8319;-63
2023/04/26 09:30:20;;;;;;;;;;;;;;;26.00;40.04;94146.16;4919096;29;7362;-63
2023/04/26 09:33:08;;;;;;;;;;;;;;;26.02;39.79;94143.63;4901834;29;9212;-63
2023/04/26 09:35:40;;;;;;;;;;;;;;;26.03;40.55;94139.59;4919058;28;7059;-63
2023/04/26 09:38:26;;;;;;;;;;;;;;;26.02;40.80;94149.16;4976574;28;7045;-63
2023/04/26 09:41:10;;;;;;;;;;;;;;;25.99;40.30;94144.66;4988477;28;7242;-63
2023/04/26 09:43:37;;;;;;;;;;;;;;;26.01;40.27;94144.88;4973665;28;7052;-63
2023/04/26 09:46:04;;;;;;;;;;;;;;;26.00;40.77;94140.66;4957292;28;7323;-63
2023/04/26 09:49:00;;;;;;;;;;;;;;;25.99;40.02;94139.16;4956934;28;8826;-62
2023/04/26 09:51:43;;;;;;;;;;;;;;;26.02;40.73;94148.38;4959716;28;7050;-63
2023/04/26 09:54:10;;;;;;;;;;;;;;;26.01;40.48;94144.88;4984593;28;9052;-63
2023/04/26 09:56:38;;;;;;;;;;;;;;;26.02;40.45;94131.84;5051175;28;7525;-63
2023/04/26 09:59:06;;;;;;;;;;;;;;;26.02;40.19;94132.59;5070290;28;8993;-63
2023/04/26 10:01:42;;;;;;;;;;;;;;;26.02;40.30;94131.84;5073548;28;9227;-63
2023/04/26 10:04:17;;;;;;;;;;;;;;;26.05;39.74;94137.09;5055577;28;7261;-63
2023/04/26 10:06:54;;;;;;;;;;;;;;;26.05;40.42;94137.09;5056061;28;7266;-63
2023/04/26 10:09:25;;;;;;;;;;;;;;;26.06;39.76;94137.81;5060272;28;7241;-63
2023/04/26 10:11:55;;;;;;;;;;;;;;;26.08;40.05;94133.31;5035855;28;6990;-63
2023/04/26 10:14:23;;;;;;;;;;;;;;;26.07;40.30;94131.81;5038670;28;7113;-63
2023/04/26 10:16:54;;;;;;;;;;;;;;;26.09;39.66;94134.06;5038369;28;8484;-63
2023/04/26 10:19:23;;;;;;;;;;;;;;;26.10;40.04;94133.53;5051501;28;9155;-63
2023/04/26 10:21:56;;;;;;;;;;;;;;;26.12;39.86;94135.78;5051951;28;8886;-63
2023/04/26 10:24:28;;;;;;;;;;;;;;;26.10;40.47;94130.03;5036027;28;9067;-63
2023/04/26 10:27:04;;;;;;;;;;;;;;;26.11;40.60;94132.28;5036243;28;7088;-63
2023/04/26 10:29:58;;;;;;;;;;;;;;;26.13;40.36;94126.25;5036772;28;8803;-63
2023/04/26 10:32:31;;;;;;;;;;;;;;;26.13;40.30;94118.72;5040079;28;9195;-63
2023/04/26 10:35:36;;;;;;;;;;;;;;;26.12;40.45;94119.97;5057554;28;8889;-63
2023/04/26 10:38:57;;;;;;;;;;;;;;;26.14;39.50;94117.44;5055644;28;9303;-63
2023/04/26 10:41:36;;;;;;;;;;;;;;;26.14;40.35;94114.69;4996163;28;7137;-63
2023/04/26 10:44:58;;;;;;;;;;;;;;;26.15;40.45;94115.44;4996137;28;9174;-63
2023/04/26 10:51:32;;;;;;;;;;;;;;;26.19;39.55;94104.13;4975997;28;7088;-63
2023/04/26 10:54:08;;;;;;;;;;;;;;;26.16;40.47;94089.38;4960509;28;9015;-63
2023/04/26 10:57:27;;;;;;;;;;;;;;;26.20;39.67;94097.34;4975745;28;7118;-63
2023/04/26 11:00:15;;;;;;;;;;;;;;;26.20;40.07;94087.06;4899863;29;7344;-63
2023/04/26 11:03:14;;;;;;;;;;;;;;;26.23;39.76;94096.31;4899671;29;8431;-63
2023/04/26 11:05:54;;;;;;;;;;;;;;;26.24;40.72;94093.00;4899599;29;9097;-63
2023/04/26 11:08:47;;;;;;;;;;;;;;;26.25;39.72;94089.00;4880816;29;7020;-63
2023/04/26 11:11:18;;;;;;;;;;;;;;;26.26;39.52;94092.47;4828609;29;7212;-63
2023/04/26 11:14:00;;;;;;;;;;;;;;;26.26;40.30;94084.97;4828841;29;9042;-63
2023/04/26 11:16:57;;;;;;;;;;;;;;;26.30;40.19;94084.66;4842380;29;7517;-63
2023/04/26 11:19:54;;;;;;;;;;;;;;;26.31;40.16;94080.63;4862286;29;7118;-63
2023/04/26 11:22:45;;;;;;;;;;;;;;;26.31;40.36;94088.91;4862168;29;9021;-63
2023/04/26 11:25:17;;;;;;;;;;;;;;;26.31;40.08;94080.63;4846604;29;7268;-63
2023/04/26 11:28:04;;;;;;;;;;;;;;;26.35;40.17;94081.84;4882779;29;7947;-63
2023/04/26 11:30:40;;;;;;;;;;;;;;;26.37;39.64;94081.31;4898880;29;7059;-63
2023/04/26 11:33:23;;;;;;;;;;;;;;;26.37;39.50;94075.78;4895986;28;9034;-63
2023/04/26 11:36:35;;;;;;;;;;;;;;;26.37;39.43;94073.78;4959784;28;9368;-63
2023/04/26 11:39:18;;;;;;;;;;;;;;;26.38;39.81;94080.03;4899390;29;8701;-63
2023/04/26 11:42:16;;;;;;;;;;;;;;;26.40;40.27;94077.50;4882773;29;8932;-63
2023/04/26 11:44:42;;;;;;;;;;;;;;;26.39;39.66;94078.75;4886963;29;9072;-63
2023/04/26 11:47:29;;;;;;;;;;;;;;;26.42;39.68;94078.47;4889148;28;9002;-63
2023/04/26 11:49:57;;;;;;;;;;;;;;;26.42;40.27;94086.75;4956188;28;9345;-63
2023/04/26 11:52:38;;;;;;;;;;;;;;;26.42;40.27;94070.19;4946204;28;7621;-63
2023/04/26 11:55:09;;;;;;;;;;;;;;;26.43;39.67;94076.44;4973444;28;7125;-63
2023/04/26 11:57:35;;;;;;;;;;;;;;;26.42;40.40;94072.97;4975424;28;7038;-63
2023/04/26 12:00:20;;;;;;;;;;;;;;;26.44;40.25;94073.19;4974298;28;7095;-63
2023/04/26 12:02:47;;;;;;;;;;;;;;;26.43;39.81;94073.69;4959161;28;7213;-63
2023/04/26 12:05:29;;;;;;;;;;;;;;;26.42;40.27;94080.47;4974996;28;9133;-63
2023/04/26 12:07:57;;;;;;;;;;;;;;;26.44;40.25;94078.69;4956058;28;7324;-63
2023/04/26 12:10:37;;;;;;;;;;;;;;;26.43;39.78;94076.44;4941403;28;8663;-63
2023/04/26 12:13:32;;;;;;;;;;;;;;;26.45;40.50;94076.66;4955440;28;7369;-62
2023/04/26 12:16:11;;;;;;;;;;;;;;;26.44;40.51;94078.69;4987855;28;9032;-63
2023/04/26 12:18:50;;;;;;;;;;;;;;;26.45;40.50;94085.69;5013513;28;7251;-63
2023/04/26 12:21:52;;;;;;;;;;;;;;;26.45;40.41;94082.19;5013352;28;9128;-63
2023/04/26 12:24:20;;;;;;;;;;;;;;;26.46;39.60;94086.44;4974394;28;7440;-63
2023/04/26 12:26:47;;;;;;;;;;;;;;;26.47;40.53;94093.44;4958921;28;8987;-63
2023/04/26 12:29:27;;;;;;;;;;;;;;;26.48;40.44;94083.91;4974787;28;8041;-63
2023/04/26 12:32:02;;;;;;;;;;;;;;;26.47;39.65;94087.94;4963847;28;7038;-63
2023/04/26 12:34:28;;;;;;;;;;;;;;;26.47;40.15;94091.41;4942352;28;7292;-63
2023/04/26 12:36:55;;;;;;;;;;;;;;;26.47;39.98;94087.94;4974263;28;7016;-63
2023/04/26 12:39:31;;;;;;;;;;;;;;;26.45;39.60;94082.19;4957753;28;7333;-63
2023/04/26 12:41:57;;;;;;;;;;;;;;;26.48;40.04;94090.16;4965801;28;7051;-63
2023/04/26 12:44:23;;;;;;;;;;;;;;;26.50;40.04;94092.38;4939101;28;7112;-63
2023/04/26 12:46:50;;;;;;;;;;;;;;;26.49;39.71;94088.16;4955083;28;9110;-63
2023/04/26 12:49:16;;;;;;;;;;;;;;;26.48;39.94;94084.66;4938486;28;9499;-63
2023/04/26 12:51:43;;;;;;;;;;;;;;;26.47;40.09;94088.66;4936800;28;9096;-63
2023/04/26 12:54:12;;;;;;;;;;;;;;;26.46;40.38;94081.66;4944509;28;8065;-63
2023/04/26 12:56:48;;;;;;;;;;;;;;;26.48;39.77;94081.13;4954783;28;9407;-63
2023/04/26 12:59:18;;;;;;;;;;;;;;;26.50;39.59;94093.13;4966240;28;7776;-63
2023/04/26 13:01:57;;;;;;;;;;;;;;;26.51;39.73;94088.38;5054762;28;8216;-63
2023/04/26 13:04:30;;;;;;;;;;;;;;;26.51;40.47;94083.59;5037398;28;7025;-63
2023/04/26 13:06:57;;;;;;;;;;;;;;;26.51;40.34;94088.38;5053677;28;7324;-63
2023/04/26 13:09:23;;;;;;;;;;;;;;;26.50;39.73;94082.09;5036035;28;8288;-63
2023/04/26 13:11:48;;;;;;;;;;;;;;;26.50;39.96;94076.59;5036588;28;7318;-63
2023/04/26 13:14:16;;;;;;;;;;;;;;;26.52;39.90;94073.31;5055952;28;9014;-63
2023/04/26 13:16:43;;;;;;;;;;;;;;;26.51;40.50;94071.81;5056628;28;7249;-63
2023/04/26 13:19:12;;;;;;;;;;;;;;;26.47;40.41;94065.88;5051857;28;9105;-63
2023/04/26 13:21:39;;;;;;;;;;;;;;;26.50;39.90;94071.06;5051851;28;7260;-63
2023/04/26 13:24:06;;;;;;;;;;;;;;;26.50;40.60;94073.09;5052813;28;7127;-63
2023/04/26 13:26:36;;;;;;;;;;;;;;;26.53;39.96;94072.03;5053176;28;9051;-63
2023/04/26 13:29:03;;;;;;;;;;;;;;;26.51;39.95;94067.03;5052240;28;9039;-63
2023/04/26 13:31:29;;;;;;;;;;;;;;;26.53;40.54;94067.28;5052081;28;7331;-63
2023/04/26 13:33:55;;;;;;;;;;;;;;;26.52;39.91;94065.78;5054717;28;8917;-63
2023/04/26 13:36:21;;;;;;;;;;;;;;;26.54;39.61;94059.72;5072503;28;7670;-63
2023/04/26 13:38:50;;;;;;;;;;;;;;;26.54;39.95;94062.50;5073140;28;8998;-63
2023/04/26 13:41:34;;;;;;;;;;;;;;;26.58;40.23;94060.16;5056497;28;8853;-63
2023/04/26 13:44:03;;;;;;;;;;;;;;;26.59;40.18;94062.41;5059468;28;7060;-63
2023/04/26 13:46:30;;;;;;;;;;;;;;;26.58;40.06;94057.41;5054121;28;7269;-63
2023/04/26 13:49:00;;;;;;;;;;;;;;;26.58;40.33;94055.41;5036967;28;9126;-63
2023/04/26 13:51:46;;;;;;;;;;;;;;;26.60;40.36;94052.84;5036562;28;7334;-63